createdAt,value
2017-08-29T00:04:57.342Z,48.4
2017-08-29T00:15:11.640Z,46.6
2017-08-29T00:25:27.199Z,40.7
2017-08-29T00:35:41.750Z,39.4
2017-08-29T00:45:57.119Z,39
2017-08-29T00:56:11.929Z,46.1
2017-08-29T01:06:26.653Z,42.5
2017-08-29T01:16:42.191Z,42.4
2017-08-29T01:26:56.300Z,38.4
2017-08-29T01:37:10.159Z,33.4
2017-08-29T01:47:24.305Z,31.6
2017-08-29T01:57:40.001Z,26
2017-08-29T02:07:53.930Z,24.7
2017-08-29T02:18:08.967Z,23.8
2017-08-29T02:28:22.920Z,23.3
2017-08-29T02:38:38.042Z,21.7
2017-08-29T02:48:52.574Z,21.6
2017-08-29T02:59:07.393Z,23
2017-08-29T03:09:22.562Z,28.9
2017-08-29T03:19:38.193Z,31.5
2017-08-29T03:29:52.301Z,27.9
2017-08-29T03:40:07.605Z,27.8
2017-08-29T03:50:21.622Z,26.3
2017-08-29T04:00:35.549Z,25.4
2017-08-29T04:10:50.754Z,23.6
2017-08-29T04:21:04.540Z,22.8
2017-08-29T04:31:19.032Z,22.8
2017-08-29T04:41:34.529Z,22.6
2017-08-29T04:51:49.063Z,21.3
2017-08-29T05:02:04.329Z,20.6
2017-08-29T05:12:19.266Z,19.7
2017-08-29T05:22:34.116Z,19.5
2017-08-29T05:32:48.919Z,19.8
2017-08-29T05:43:04.634Z,19.6
2017-08-29T05:53:18.528Z,20.9
2017-08-29T06:03:33.901Z,27.8
2017-08-29T06:13:49.595Z,43.5
2017-08-29T06:24:05.168Z,76.8
2017-08-29T06:34:19.344Z,83.3
2017-08-29T06:44:33.302Z,91.3
2017-08-29T06:54:48.904Z,87
2017-08-29T07:05:03.875Z,96.9
2017-08-29T07:15:19.127Z,96.8
2017-08-29T07:25:33.274Z,98.5
2017-08-29T07:35:49.005Z,100
2017-08-29T07:46:04.206Z,97.3
2017-08-29T07:56:19.193Z,96
2017-08-29T08:06:35.026Z,93.8
2017-08-29T08:16:49.883Z,93.8
2017-08-29T08:27:05.068Z,91.4
2017-08-29T08:37:19.628Z,91.7
2017-08-29T08:47:35.052Z,89.6
2017-08-29T08:57:50.332Z,88.2
2017-08-29T09:08:05.050Z,87.9
2017-08-29T09:18:19.954Z,84.7
2017-08-29T09:28:35.674Z,82.8
2017-08-29T09:38:50.669Z,82.8
2017-08-29T09:49:05.848Z,81.3
2017-08-29T09:59:21.164Z,82
2017-08-29T10:09:36.553Z,80.8
2017-08-29T10:19:51.535Z,79.3
2017-08-29T10:30:06.625Z,77.3
2017-08-29T10:40:21.487Z,75.6
2017-08-29T10:50:36.897Z,73
2017-08-29T11:00:51.593Z,72
2017-08-29T11:11:05.593Z,71.6
2017-08-29T11:21:21.077Z,70.1
2017-08-29T11:31:35.368Z,71.8
2017-08-29T11:41:49.355Z,69.4
2017-08-29T11:52:04.762Z,68.1
2017-08-29T12:02:17.991Z,67
2017-08-29T12:12:32.105Z,67.5
2017-08-29T12:22:47.740Z,66.8
2017-08-29T12:33:03.367Z,64.9
2017-08-29T12:43:19.178Z,64.6
2017-08-29T12:53:34.703Z,64.2
2017-08-29T13:03:48.714Z,62.9
2017-08-29T13:14:02.938Z,63.1
2017-08-29T13:24:17.266Z,61.8
2017-08-29T13:34:32.399Z,62.8
2017-08-29T13:44:48.240Z,61.3
2017-08-29T13:55:02.391Z,59.6
2017-08-29T14:05:18.128Z,61
2017-08-29T14:15:33.651Z,59.4
2017-08-29T14:25:47.994Z,60.9
2017-08-29T14:36:03.249Z,61
2017-08-29T14:46:18.233Z,61.1
2017-08-29T14:56:34.549Z,59.6
2017-08-29T15:06:48.916Z,59
2017-08-29T15:17:03.115Z,58.9
2017-08-29T15:27:18.460Z,59.3
2017-08-29T15:37:32.870Z,60
2017-08-29T15:47:47.640Z,61
2017-08-29T15:58:03.373Z,60.9
2017-08-29T16:08:17.642Z,61.2
2017-08-29T16:18:32.930Z,61.5
2017-08-29T16:28:47.106Z,62
2017-08-29T16:39:01.052Z,63.2
2017-08-29T16:49:16.113Z,64
2017-08-29T16:59:31.037Z,66.2
2017-08-29T17:09:46.300Z,68.3
2017-08-29T17:20:00.623Z,70.6
2017-08-29T17:30:14.651Z,74.1
2017-08-29T17:40:28.563Z,76.7
2017-08-29T17:50:43.852Z,78.7
2017-08-29T18:00:57.742Z,80.2
2017-08-29T18:11:11.633Z,82.1
2017-08-29T18:21:27.163Z,83.7
2017-08-29T18:31:42.345Z,84.9
2017-08-29T18:41:57.490Z,85.5
2017-08-29T18:52:12.322Z,86.1
2017-08-29T19:02:26.794Z,86.9
2017-08-29T19:12:41.116Z,86.5
2017-08-29T19:22:55.924Z,88.6
2017-08-29T19:33:11.049Z,89.5
2017-08-29T19:43:26.250Z,83.5
2017-08-29T19:53:40.311Z,85.4
2017-08-29T20:03:55.691Z,82.8
2017-08-29T20:14:11.306Z,72.7
2017-08-29T20:24:25.876Z,65.3
2017-08-29T20:34:39.992Z,58
2017-08-29T20:44:53.779Z,65.4
2017-08-29T20:55:09.521Z,72
2017-08-29T21:05:23.882Z,68.1
2017-08-29T21:15:38.019Z,62.6
2017-08-29T21:25:52.373Z,53.9
2017-08-29T21:36:06.483Z,57.1
2017-08-29T21:46:20.749Z,54.9
2017-08-29T21:56:36.087Z,52.1
2017-08-29T22:06:50.614Z,54.7
2017-08-29T22:17:05.049Z,47.6
2017-08-29T22:27:20.344Z,66.5
2017-08-29T22:37:34.963Z,79.9
2017-08-29T22:47:49.087Z,72.5
2017-08-29T22:58:02.916Z,63.9
2017-08-29T23:08:17.764Z,70.8
2017-08-29T23:18:33.068Z,77.7
2017-08-29T23:28:47.102Z,71.3
2017-08-29T23:39:01.936Z,81.2
2017-08-29T23:49:17.128Z,86.5
2017-08-29T23:59:30.977Z,72.1
